Startpagina
METAR-TAF:

METAR-TAF

Vliegvelden :

Tokio-Haneda, Japan

Luchthaven Haneda

breedte: 35-33N, lengte: 139-47E, hoogte: 5 m

Actueel weer

Dit bericht is 24 minuten geleden gemaakt, om 13:00 UTC
Wind 7 kt uit het westzuidwesten
Temperatuur 26°C
Vochtigheid 65%
Druk 1009 hPa
Zicht 10 km of meer
geen wolken onder 1500 m en geen cumulonimbus

METAR: RJTT 191300Z 24007KT CAVOK 26/19 Q1009 BECMG 28006KT RMK A2980

Tijdstip: 22:24 (13:24 UTC)

Verwachting

Dit bericht is 2 uur en het 19 minuten geleden gemaakt, om 11:05 UTC
Verwachting geldig van 19 om 12 UTC tot 20 om 18 UTC
Wind 6 kt uit het noordnoordwesten
Zicht 10 km of meer
Weinig wolken op 2000 ft
Wijzigt naar
van 19 om 22 UTC tot 20 om 00 UTC
Wind 8 kt uit het oostzuidoosten
Wijzigt naar
van 20 om 00 UTC tot 20 om 03 UTC
Wind 12 kt uit het zuiden

TAF: RJTT 191105Z 1912/2018 34006KT 9999 FEW020 BECMG 1922/2000 12008KT BECMG 2000/2003 19012KT

Waarnemingen en weersverwachtingen van meer dan 4000 vliegvelden (METAR en TAF).

De beschikbare stations zijn de gele en rode punten op de kaart.

Ga met uw muis naar het station om de naam te zien.

Klik dan om waarnemingen en weersverwachtingen te zien.

kaart wijzigen: klik op de groene knoppen met een zwart kruis om in te zoomen, op de groene knop met een streepje om uit te zoomen of op de groene pijlen voor aangrenzende kaarten.


METAR-TAF: